createdAt,value
2019-01-25T00:03:57.506Z,103.57
2019-01-25T00:06:45.649Z,104.60
2019-01-25T00:09:34.034Z,88.97
2019-01-25T00:12:22.173Z,100.83
2019-01-25T00:15:10.431Z,94.47
2019-01-25T00:17:58.561Z,88.87
2019-01-25T00:20:46.693Z,99.10
2019-01-25T00:23:34.837Z,86.33
2019-01-25T00:26:23.248Z,93.67
2019-01-25T00:29:11.451Z,99.10
2019-01-25T00:31:59.613Z,91.20
2019-01-25T00:34:48.031Z,103.67
2019-01-25T00:37:36.161Z,90.30
2019-01-25T00:40:24.335Z,104.43
2019-01-25T00:43:12.836Z,90.53
2019-01-25T00:46:01.237Z,94.27
2019-01-25T00:48:41.914Z,107.00
2019-01-25T00:51:22.632Z,104.83
2019-01-25T00:54:01.377Z,103.73
2019-01-25T00:56:49.541Z,101.03
2019-01-25T00:59:37.670Z,91.77
2019-01-25T01:02:25.805Z,92.40
2019-01-25T01:05:14.516Z,85.50
2019-01-25T01:08:02.762Z,92.17
2019-01-25T01:10:51.145Z,85.30
2019-01-25T01:13:39.278Z,94.17
2019-01-25T01:16:27.429Z,96.97
2019-01-25T01:19:15.605Z,93.87
2019-01-25T01:22:03.725Z,97.07
2019-01-25T01:24:51.867Z,103.90
2019-01-25T01:27:40.036Z,90.67
2019-01-25T01:30:28.451Z,97.20
2019-01-25T01:33:16.593Z,104.07
2019-01-25T01:36:04.742Z,105.13
2019-01-25T01:38:52.870Z,89.30
2019-01-25T01:41:41.031Z,86.13
2019-01-25T01:44:29.186Z,95.30
2019-01-25T01:47:09.800Z,99.50
2019-01-25T01:49:48.545Z,95.17
2019-01-25T01:52:36.674Z,93.83
2019-01-25T01:55:24.818Z,95.20
2019-01-25T01:58:13.185Z,90.57
2019-01-25T02:01:01.646Z,95.20
2019-01-25T02:03:49.782Z,96.70
2019-01-25T02:06:37.926Z,103.13
2019-01-25T02:09:26.058Z,100.17
2019-01-25T02:12:14.292Z,104.10
2019-01-25T02:15:02.442Z,93.97
2019-01-25T02:17:50.715Z,103.40
2019-01-25T02:20:38.868Z,94.90
2019-01-25T02:23:26.995Z,98.80
2019-01-25T02:26:15.404Z,91.90
2019-01-25T02:29:03.532Z,107.83
2019-01-25T02:31:51.606Z,99.50
2019-01-25T02:34:39.729Z,87.97
2019-01-25T02:37:27.887Z,109.17
2019-01-25T02:40:17.474Z,99.77
2019-01-25T02:43:05.605Z,89.07
2019-01-25T02:45:53.753Z,105.07
2019-01-25T02:48:34.410Z,107.63
2019-01-25T02:51:15.896Z,103.53
2019-01-25T02:53:56.245Z,95.80
2019-01-25T02:56:35.208Z,96.87
2019-01-25T02:59:23.384Z,99.70
2019-01-25T03:02:11.523Z,100.70
2019-01-25T03:04:59.589Z,96.80
2019-01-25T03:07:48.657Z,95.07
2019-01-25T03:10:37.028Z,96.53
2019-01-25T03:13:25.343Z,95.37
2019-01-25T03:16:13.490Z,92.03
2019-01-25T03:19:01.616Z,96.67
2019-01-25T03:21:49.795Z,94.27
2019-01-25T03:24:37.938Z,92.53
2019-01-25T03:27:26.127Z,106.83
2019-01-25T03:30:15.363Z,93.30
2019-01-25T03:33:03.543Z,95.97
2019-01-25T03:35:51.666Z,99.13
2019-01-25T03:38:39.812Z,86.67
2019-01-25T03:41:27.983Z,97.90
2019-01-25T03:44:16.149Z,96.03
2019-01-25T03:46:56.958Z,96.40
2019-01-25T03:49:37.588Z,90.93
2019-01-25T03:52:18.363Z,94.67
2019-01-25T03:54:57.094Z,107.10
2019-01-25T03:57:45.490Z,101.63
2019-01-25T04:00:33.698Z,95.37
2019-01-25T04:03:21.855Z,105.07
2019-01-25T04:06:10.246Z,100.17
2019-01-25T04:08:58.402Z,105.60
2019-01-25T04:11:46.733Z,99.80
2019-01-25T04:14:34.802Z,108.47
2019-01-25T04:17:22.957Z,96.20
2019-01-25T04:20:11.939Z,107.33
2019-01-25T04:23:00.125Z,103.23
2019-01-25T04:25:48.241Z,86.90
2019-01-25T04:28:36.387Z,88.83
2019-01-25T04:31:24.778Z,102.27
2019-01-25T04:34:13.123Z,102.50
2019-01-25T04:37:01.498Z,83.70
2019-01-25T04:39:49.676Z,90.63
2019-01-25T04:42:37.856Z,97.70
2019-01-25T04:45:25.984Z,91.87
2019-01-25T04:48:08.095Z,87.00
2019-01-25T04:50:49.119Z,98.90
2019-01-25T04:53:31.409Z,98.43
2019-01-25T04:56:10.146Z,103.40
2019-01-25T04:58:58.215Z,96.50
2019-01-25T05:01:46.358Z,107.63
2019-01-25T05:04:36.217Z,96.00
2019-01-25T05:07:24.388Z,94.47
2019-01-25T05:10:12.524Z,97.87
2019-01-25T05:13:00.957Z,96.43
2019-01-25T05:15:49.381Z,88.43
2019-01-25T05:18:37.970Z,82.27
2019-01-25T05:21:26.143Z,85.17
2019-01-25T05:24:14.289Z,88.50
2019-01-25T05:27:02.414Z,96.47
2019-01-25T05:30:09.676Z,101.00
2019-01-25T05:32:57.973Z,88.37
2019-01-25T05:35:46.122Z,97.50
2019-01-25T05:38:34.278Z,81.77
2019-01-25T05:41:28.154Z,86.07
2019-01-25T05:44:12.361Z,99.03
2019-01-25T05:46:53.482Z,87.93
2019-01-25T05:49:32.378Z,97.77
2019-01-25T05:52:20.506Z,88.53
2019-01-25T05:58:08.154Z,98.77
2019-01-25T06:00:56.349Z,96.03
2019-01-25T06:03:44.765Z,92.57
2019-01-25T06:06:32.896Z,83.37
2019-01-25T06:09:21.168Z,93.80
2019-01-25T06:12:09.306Z,103.77
2019-01-25T06:14:57.488Z,91.60
2019-01-25T06:17:45.631Z,99.27
2019-01-25T06:20:33.770Z,97.20
2019-01-25T06:23:21.911Z,94.33
2019-01-25T06:26:10.773Z,96.43
2019-01-25T06:28:59.108Z,96.53
2019-01-25T06:31:47.295Z,96.67
2019-01-25T06:34:35.377Z,99.33
2019-01-25T06:37:23.479Z,103.33
2019-01-25T06:40:11.622Z,91.73
2019-01-25T06:42:59.750Z,97.77
2019-01-25T06:45:47.936Z,92.07
2019-01-25T06:48:28.493Z,99.90
2019-01-25T06:51:07.169Z,92.60
2019-01-25T06:53:36.177Z,97.23
2019-01-25T06:56:24.682Z,87.30
2019-01-25T06:59:12.911Z,93.53
2019-01-25T07:02:20.094Z,89.67
2019-01-25T07:05:08.491Z,87.80
2019-01-25T07:07:56.574Z,98.97
2019-01-25T07:10:44.950Z,96.50
2019-01-25T07:13:33.052Z,97.23
2019-01-25T07:16:21.186Z,90.30
2019-01-25T07:19:09.414Z,95.90
2019-01-25T07:21:57.478Z,93.37
2019-01-25T07:24:46.794Z,104.67
2019-01-25T07:27:35.514Z,78.57
2019-01-25T07:30:23.712Z,88.17
2019-01-25T07:33:11.881Z,83.53
2019-01-25T07:36:00.329Z,86.33
2019-01-25T07:38:48.537Z,78.80
2019-01-25T07:41:36.754Z,78.73
2019-01-25T07:44:25.130Z,89.10
2019-01-25T07:47:06.213Z,85.03
2019-01-25T07:49:46.720Z,82.83
2019-01-25T07:52:25.740Z,83.53
2019-01-25T07:55:13.935Z,89.63
2019-01-25T07:58:02.010Z,101.83
2019-01-25T08:00:50.212Z,78.33
2019-01-25T08:03:38.450Z,74.03
2019-01-25T08:06:26.511Z,78.93
2019-01-25T08:09:14.647Z,77.57
2019-01-25T08:12:07.288Z,74.97
2019-01-25T08:14:52.634Z,80.27
2019-01-25T08:17:40.785Z,74.17
2019-01-25T08:20:29.051Z,88.77
2019-01-25T08:23:17.210Z,72.37
2019-01-25T08:26:05.587Z,76.33
2019-01-25T08:28:53.907Z,75.30
2019-01-25T08:31:41.970Z,67.17
2019-01-25T08:34:30.161Z,82.77
2019-01-25T08:37:18.358Z,69.50
2019-01-25T08:40:07.248Z,69.93
2019-01-25T08:42:55.438Z,66.97
2019-01-25T08:45:44.372Z,69.00
2019-01-25T08:48:23.210Z,67.53
2019-01-25T08:51:11.634Z,77.93
2019-01-25T08:54:01.312Z,71.90
2019-01-25T08:56:49.502Z,67.40
2019-01-25T08:59:37.753Z,59.57
2019-01-25T09:02:25.936Z,71.33
2019-01-25T09:05:14.196Z,55.53
2019-01-25T09:08:02.330Z,70.90
2019-01-25T09:10:50.950Z,61.20
2019-01-25T09:13:39.027Z,57.90
2019-01-25T09:16:27.185Z,62.17
2019-01-25T09:19:15.253Z,66.50
2019-01-25T09:22:03.385Z,59.57
2019-01-25T09:24:51.705Z,58.97
2019-01-25T09:27:39.880Z,62.97
2019-01-25T09:30:28.266Z,56.70
2019-01-25T09:33:16.407Z,57.90
2019-01-25T09:36:04.954Z,53.50
2019-01-25T09:38:53.087Z,56.37
2019-01-25T09:41:41.272Z,57.33
2019-01-25T09:44:29.572Z,60.20
2019-01-25T09:47:10.590Z,54.57
2019-01-25T09:49:51.306Z,56.70
2019-01-25T09:52:30.004Z,62.93
2019-01-25T09:58:18.386Z,59.37
2019-01-25T10:01:07.642Z,61.50
2019-01-25T10:03:55.766Z,53.43
2019-01-25T10:06:43.925Z,50.00
2019-01-25T10:09:32.026Z,48.93
2019-01-25T10:12:20.206Z,53.00
2019-01-25T10:15:09.465Z,55.53
2019-01-25T10:17:57.538Z,63.63
2019-01-25T10:20:45.653Z,49.03
2019-01-25T10:23:33.783Z,61.77
2019-01-25T10:26:21.922Z,59.57
2019-01-25T10:29:10.054Z,50.20
2019-01-25T10:31:58.227Z,50.33
2019-01-25T10:34:46.364Z,53.43
2019-01-25T10:37:34.582Z,53.77
2019-01-25T10:40:22.748Z,62.57
2019-01-25T10:43:10.936Z,52.73
2019-01-25T10:45:59.353Z,59.80
2019-01-25T10:48:39.766Z,51.93
2019-01-25T10:51:21.089Z,47.97
2019-01-25T10:54:01.500Z,53.80
2019-01-25T10:56:42.017Z,55.23
2019-01-25T10:59:30.230Z,53.43
2019-01-25T11:02:18.308Z,54.00
2019-01-25T11:05:07.011Z,54.93
2019-01-25T11:07:55.153Z,51.87
2019-01-25T11:10:43.219Z,51.97
2019-01-25T11:13:31.381Z,55.27
2019-01-25T11:16:19.753Z,49.03
2019-01-25T11:18:48.787Z,56.90
2019-01-25T11:21:37.574Z,56.43
2019-01-25T11:24:26.806Z,49.73
2019-01-25T11:27:14.946Z,54.90
2019-01-25T11:30:03.232Z,49.30
2019-01-25T11:32:51.326Z,47.17
2019-01-25T11:35:39.470Z,55.50
2019-01-25T11:38:27.858Z,46.73
2019-01-25T11:41:16.025Z,47.50
2019-01-25T11:44:04.174Z,40.90
2019-01-25T11:46:42.730Z,50.57
2019-01-25T11:49:31.130Z,47.00
2019-01-25T11:52:19.426Z,50.23
2019-01-25T11:55:07.645Z,45.53
2019-01-25T11:57:55.832Z,45.23
2019-01-25T12:00:45.643Z,48.47
2019-01-25T12:03:33.702Z,44.03
2019-01-25T12:06:21.854Z,47.47
2019-01-25T12:09:10.036Z,46.27
2019-01-25T12:11:58.166Z,38.97
2019-01-25T12:14:46.282Z,41.43
2019-01-25T12:17:34.669Z,39.97
2019-01-25T12:20:23.915Z,47.97
2019-01-25T12:23:12.318Z,46.13
2019-01-25T12:26:00.425Z,42.07
2019-01-25T12:28:49.113Z,54.80
2019-01-25T12:31:38.338Z,57.10
2019-01-25T12:34:26.465Z,50.20
2019-01-25T12:37:14.610Z,51.30
2019-01-25T12:40:02.758Z,54.10
2019-01-25T12:42:50.910Z,44.80
2019-01-25T12:45:38.978Z,42.07
2019-01-25T12:48:19.472Z,50.67
2019-01-25T12:51:00.196Z,47.43
2019-01-25T12:53:40.918Z,41.47
2019-01-25T12:56:20.042Z,37.77
2019-01-25T12:59:08.167Z,45.17
2019-01-25T13:01:56.416Z,45.93
2019-01-25T13:04:44.667Z,46.77
2019-01-25T13:07:32.890Z,45.17
2019-01-25T13:10:21.151Z,83.40
2019-01-25T13:13:09.538Z,59.53
2019-01-25T13:15:57.591Z,41.70
2019-01-25T13:18:46.154Z,50.77
2019-01-25T13:21:34.369Z,57.27
2019-01-25T13:24:22.435Z,49.07
2019-01-25T13:27:11.081Z,52.23
2019-01-25T13:29:59.545Z,55.97
2019-01-25T13:32:47.964Z,60.50
2019-01-25T13:35:36.308Z,59.17
2019-01-25T13:38:24.526Z,43.57
2019-01-25T13:41:12.673Z,50.63
2019-01-25T13:44:00.808Z,46.07
2019-01-25T13:46:40.030Z,52.27
2019-01-25T13:49:28.602Z,52.00
2019-01-25T13:52:17.092Z,49.97
2019-01-25T13:55:05.802Z,38.60
2019-01-25T13:57:53.878Z,58.97
2019-01-25T14:00:42.021Z,51.23
2019-01-25T14:03:30.196Z,46.80
2019-01-25T14:06:18.250Z,55.63
2019-01-25T14:09:07.472Z,47.67
2019-01-25T14:11:55.605Z,47.57
2019-01-25T14:14:43.761Z,46.47
2019-01-25T14:17:31.913Z,45.70
2019-01-25T14:20:23.507Z,47.30
2019-01-25T14:23:10.808Z,44.90
2019-01-25T14:25:58.950Z,51.37
2019-01-25T14:28:47.095Z,47.63
2019-01-25T14:31:35.229Z,56.47
2019-01-25T14:34:23.358Z,50.73
2019-01-25T14:37:11.721Z,48.57
2019-01-25T14:39:59.874Z,56.33
2019-01-25T14:42:47.940Z,49.07
2019-01-25T14:45:36.503Z,49.10
2019-01-25T14:48:15.647Z,54.70
2019-01-25T14:51:03.783Z,52.77
2019-01-25T14:53:51.911Z,51.20
2019-01-25T14:56:40.082Z,52.80
2019-01-25T14:59:28.227Z,47.80
2019-01-25T15:02:16.563Z,47.90
2019-01-25T15:05:07.208Z,43.80
2019-01-25T15:07:55.599Z,42.67
2019-01-25T15:10:43.739Z,37.77
2019-01-25T15:13:31.431Z,35.90
2019-01-25T15:16:19.709Z,42.33
2019-01-25T15:19:08.111Z,36.87
2019-01-25T15:21:56.690Z,39.83
2019-01-25T15:24:44.952Z,39.67
2019-01-25T15:27:33.211Z,36.50
2019-01-25T15:30:22.547Z,43.13
2019-01-25T15:33:12.553Z,43.97
2019-01-25T15:36:00.784Z,35.80
2019-01-25T15:38:49.199Z,41.80
2019-01-25T15:41:18.450Z,38.30
2019-01-25T15:44:10.174Z,43.73
2019-01-25T15:46:47.680Z,42.90
2019-01-25T15:49:36.089Z,42.40
2019-01-25T15:52:24.702Z,41.90
2019-01-25T15:55:13.055Z,34.50
2019-01-25T15:58:01.214Z,42.37
2019-01-25T16:00:49.446Z,39.43
2019-01-25T16:03:37.578Z,41.17
2019-01-25T16:06:25.785Z,41.17
2019-01-25T16:09:22.123Z,39.83
2019-01-25T16:12:04.218Z,41.73
2019-01-25T16:14:52.358Z,43.20
2019-01-25T16:17:40.526Z,43.60
2019-01-25T16:20:28.762Z,48.00
2019-01-25T16:23:17.206Z,40.03
2019-01-25T16:26:05.380Z,37.57
2019-01-25T16:28:34.541Z,47.40
2019-01-25T16:31:22.727Z,40.77
2019-01-25T16:34:10.904Z,44.57
2019-01-25T16:36:59.273Z,60.30
2019-01-25T16:39:47.345Z,38.23
2019-01-25T16:42:35.417Z,43.27
2019-01-25T16:45:24.798Z,41.40
2019-01-25T16:48:03.629Z,44.50
2019-01-25T16:50:51.732Z,37.07
2019-01-25T16:53:39.866Z,41.87
2019-01-25T16:56:28.022Z,42.57
2019-01-25T16:59:16.853Z,38.50
2019-01-25T17:02:05.085Z,44.27
2019-01-25T17:04:53.214Z,42.33
2019-01-25T17:07:41.355Z,38.23
2019-01-25T17:10:29.570Z,42.87
2019-01-25T17:13:17.796Z,43.10
2019-01-25T17:15:47.562Z,46.17
2019-01-25T17:18:35.755Z,39.17
2019-01-25T17:21:23.940Z,39.63
2019-01-25T17:24:12.185Z,46.90
2019-01-25T17:27:00.386Z,40.57
2019-01-25T17:29:48.962Z,35.73
2019-01-25T17:32:37.130Z,42.97
2019-01-25T17:35:25.338Z,36.43
2019-01-25T17:38:13.498Z,45.07
2019-01-25T17:41:01.663Z,45.03
2019-01-25T17:43:49.768Z,46.43
2019-01-25T17:46:30.459Z,38.93
2019-01-25T17:49:09.300Z,44.67
2019-01-25T17:54:45.498Z,44.17
2019-01-25T17:57:33.701Z,45.70
2019-01-25T18:00:41.919Z,41.07
2019-01-25T18:03:30.242Z,41.07
2019-01-25T18:06:18.437Z,42.57
2019-01-25T18:09:07.346Z,44.83
2019-01-25T18:11:55.406Z,45.17
2019-01-25T18:14:49.153Z,37.43
2019-01-25T18:17:33.488Z,48.43
2019-01-25T18:20:02.445Z,39.97
2019-01-25T18:22:50.898Z,40.10
2019-01-25T18:25:59.686Z,50.17
2019-01-25T18:29:07.012Z,40.83
2019-01-25T18:31:55.425Z,39.00
2019-01-25T18:34:44.137Z,37.40
2019-01-25T18:37:54.769Z,38.60
2019-01-25T18:40:43.399Z,43.73
2019-01-25T18:43:31.556Z,37.50
2019-01-25T18:46:19.725Z,41.43
2019-01-25T18:49:07.874Z,46.97
2019-01-25T18:51:56.013Z,39.20
2019-01-25T18:54:44.164Z,43.40
2019-01-25T18:57:13.021Z,183.33
2019-01-25T18:59:42.340Z,48.27
2019-01-25T19:02:30.538Z,39.60
2019-01-25T19:05:18.967Z,41.43
2019-01-25T19:08:07.147Z,40.67
2019-01-25T19:10:55.307Z,38.67
2019-01-25T19:13:43.466Z,48.53
2019-01-25T19:16:31.638Z,47.60
2019-01-25T19:19:19.789Z,47.93
2019-01-25T19:22:07.929Z,48.10
2019-01-25T19:24:56.399Z,41.87
2019-01-25T19:27:45.898Z,47.57
2019-01-25T19:30:35.515Z,41.07
2019-01-25T19:33:23.794Z,40.80
2019-01-25T19:36:11.922Z,37.63
2019-01-25T19:39:00.256Z,41.70
2019-01-25T19:41:48.426Z,43.23
2019-01-25T19:44:36.594Z,47.07
2019-01-25T19:47:17.303Z,44.83
2019-01-25T19:49:57.899Z,46.70
2019-01-25T19:52:36.782Z,38.47
2019-01-25T19:55:25.805Z,43.93
2019-01-25T19:58:15.143Z,36.50
2019-01-25T20:01:03.358Z,38.53
2019-01-25T20:03:51.514Z,54.90
2019-01-25T20:09:48.460Z,39.97
2019-01-25T20:12:36.925Z,44.90
2019-01-25T20:15:25.712Z,41.33
2019-01-25T20:18:14.038Z,36.63
2019-01-25T20:21:02.208Z,40.10
2019-01-25T20:23:50.825Z,42.50
2019-01-25T20:26:39.349Z,34.17
2019-01-25T20:29:27.529Z,38.87
2019-01-25T20:32:15.666Z,41.80
2019-01-25T20:38:18.564Z,44.53
2019-01-25T20:41:07.438Z,35.63
2019-01-25T20:43:55.574Z,46.50
2019-01-25T20:46:34.630Z,36.93
2019-01-25T20:49:22.777Z,41.80
2019-01-25T20:52:10.958Z,35.47
2019-01-25T20:54:59.374Z,40.67
2019-01-25T20:57:48.021Z,39.97
2019-01-25T21:00:36.879Z,37.97
2019-01-25T21:03:25.145Z,40.60
2019-01-25T21:06:13.220Z,36.83
2019-01-25T21:09:01.274Z,33.60
2019-01-25T21:11:49.427Z,34.00
2019-01-25T21:14:37.534Z,38.17
2019-01-25T21:17:25.691Z,40.37
2019-01-25T21:20:33.007Z,40.27
2019-01-25T21:23:21.130Z,36.80
2019-01-25T21:26:09.402Z,39.03
2019-01-25T21:28:57.542Z,31.07
2019-01-25T21:31:45.609Z,31.90
2019-01-25T21:34:33.674Z,29.83
2019-01-25T21:37:21.800Z,30.90
2019-01-25T21:40:11.549Z,34.63
2019-01-25T21:42:59.699Z,28.17
2019-01-25T21:45:47.869Z,31.63
2019-01-25T21:48:26.592Z,25.50
2019-01-25T21:51:14.653Z,23.70
2019-01-25T21:54:02.713Z,29.03
2019-01-25T21:56:50.873Z,24.57
2019-01-25T21:59:38.954Z,24.13
2019-01-25T22:02:27.105Z,21.57
2019-01-25T22:05:15.294Z,25.73
2019-01-25T22:08:03.520Z,27.77
2019-01-25T22:10:51.919Z,26.80
2019-01-25T22:13:39.990Z,24.77
2019-01-25T22:16:28.430Z,21.27
2019-01-25T22:19:16.619Z,27.33
2019-01-25T22:22:04.538Z,20.07
2019-01-25T22:24:52.156Z,22.70
2019-01-25T22:27:40.313Z,20.63
2019-01-25T22:30:28.941Z,20.57
2019-01-25T22:33:17.110Z,21.03
2019-01-25T22:36:05.233Z,21.30
2019-01-25T22:38:34.737Z,20.23
2019-01-25T22:41:22.893Z,20.27
2019-01-25T22:44:11.068Z,22.27
2019-01-25T22:46:51.574Z,21.27
2019-01-25T22:49:32.122Z,19.97
2019-01-25T22:52:11.692Z,21.57
2019-01-25T22:55:00.075Z,20.73
2019-01-25T22:57:48.151Z,19.30
2019-01-25T23:00:56.930Z,19.97
2019-01-25T23:04:04.209Z,18.70
2019-01-25T23:06:57.117Z,15.47
2019-01-25T23:09:55.327Z,13.37
2019-01-25T23:12:43.468Z,15.83
2019-01-25T23:15:31.613Z,17.43
2019-01-25T23:18:19.761Z,15.50
2019-01-25T23:21:07.902Z,19.20
2019-01-25T23:23:55.987Z,22.73
2019-01-25T23:26:44.109Z,20.57
2019-01-25T23:29:32.253Z,17.50
2019-01-25T23:32:20.325Z,20.63
2019-01-25T23:35:08.570Z,20.83
2019-01-25T23:37:56.905Z,18.27
2019-01-25T23:40:45.023Z,17.13
2019-01-25T23:43:33.398Z,15.67
2019-01-25T23:46:21.561Z,20.60
2019-01-25T23:49:09.702Z,19.07
2019-01-25T23:51:57.838Z,19.27
2019-01-25T23:54:45.986Z,18.67
2019-01-25T23:57:34.120Z,18.80
